Culebra, PR (00775)

5:25 AM AST on July 25, 2016 (GMT -0400)
Al's Hilltop | | Change Station

Elev 250 ft 18.30 °N, 65.29 °W | Updated 1 minute ago

Clear
Clear
79.0 °F
Feels Like 83 °F
N
9.0
Wind Variable Wind from East
Gusts 10.0 mph

Today
High -- | Low -- °F
--% Chance of Precip.
Yesterday
High -- | Low -- °F
Precip. -- in
Pressure 29.99 in
Visibility 10.0 miles
Clouds Clear
Heat Index 83 °F
Dew Point 74 °F
Humidity 85%
Rainfall 0.00 in
Snow Depth Not available.
5:57 AM 6:58 PM
Waning Gibbous, 68% visible
METAR TIST 250653Z 07004KT 10SM CLR 28/24 A2998 RMK AO2 SLP154 T02780239 $
Pressure 29.99 in
Visibility 10.0 miles
Clouds Clear
Heat Index 83 °F
Dew Point 74 °F
Humidity 85%
Rainfall 0.00 in
Snow Depth Not available.
5:57 AM 6:58 PM
Waning Gibbous, 68% visible
METAR TIST 250653Z 07004KT 10SM CLR 28/24 A2998 RMK AO2 SLP154 T02780239 $

10-Day Weather Forecast

Almanac

Astronomy

Jul. 25, 2016 Rise Set
Actual Time
Civil Twilight
Nautical Twilight
Astronomical Twilight
Moon
Length of Visible Light
Length of Day
Tomorrow will be .
, % of the Moon is Illuminated

Today's Extremes

State Highs State Lows

Community

WunderPhotos

Upload Photos

1,927,289 photos uploaded!

WunderBlog® & News

Nearby

Air Quality

  Air Quality AQ Index Pollutant
Not available.

Snow Depth

Station Depth Elevation

Earthquake Activity

City Distance Mag. Time & Date
Minimum magnitude displayed is 2.5.

Coastal Water Temperatures

Place Temperature

Stations

Nearby Weather Stations

Station Location Temp. Windchill Dew Point Humidity Wind Precip. Elev Updated Type
                   

Watches & Warnings

There are currently no watches in effect.